Time;durP1;ratioP1;P1;durP2;ratioP2;P2;SDS_P1;SDS_P2;PMS_P1;PMS_P2;Temp;Humidity;BMP_temperature;BMP_pressure;BME280_temperature;BME280_humidity;BME280_pressure;Samples;Min_cycle;Max_cycle;Signal;HPM_P1;HPM_P2
2021/01/03 00:01:21;;;;;;;70.30;22.37;;;;;;;;;;5050610;28;20278;-79
2021/01/03 00:04:27;;;;;;;68.50;22.13;;;;;;;;;;5053941;28;20184;-77
2021/01/03 00:07:32;;;;;;;64.73;22.20;;;;;;;;;;5048179;28;20217;-81
2021/01/03 00:10:37;;;;;;;60.40;21.03;;;;;;;;;;5047213;28;20258;-80
2021/01/03 00:13:41;;;;;;;61.20;21.20;;;;;;;;;;5052583;28;20228;-77
2021/01/03 00:16:46;;;;;;;64.07;21.67;;;;;;;;;;5057390;28;20215;-78
2021/01/03 00:19:52;;;;;;;77.40;24.03;;;;;;;;;;5055948;28;20215;-77
2021/01/03 00:22:57;;;;;;;70.43;22.93;;;;;;;;;;5049081;28;20230;-78
2021/01/03 00:26:04;;;;;;;65.40;22.73;;;;;;;;;;5039425;28;20211;-79
2021/01/03 00:29:09;;;;;;;68.77;21.83;;;;;;;;;;5035840;28;20288;-81
2021/01/03 00:32:13;;;;;;;68.40;23.03;;;;;;;;;;5038640;28;20311;-79
2021/01/03 00:35:20;;;;;;;63.37;22.73;;;;;;;;;;5046432;28;20671;-79
2021/01/03 00:38:26;;;;;;;65.83;22.87;;;;;;;;;;5045488;28;20203;-79
2021/01/03 00:41:31;;;;;;;64.43;21.87;;;;;;;;;;5043959;28;20231;-80
2021/01/03 00:44:36;;;;;;;64.60;21.93;;;;;;;;;;5023393;28;20243;-79
2021/01/03 00:47:40;;;;;;;69.70;21.73;;;;;;;;;;5030059;28;20270;-80
2021/01/03 00:50:45;;;;;;;70.20;22.93;;;;;;;;;;5035875;28;20349;-80
2021/01/03 00:53:51;;;;;;;65.33;22.43;;;;;;;;;;5056353;28;20230;-80
2021/01/03 00:56:59;;;;;;;65.70;22.33;;;;;;;;;;5031837;28;20685;-80
2021/01/03 01:00:07;;;;;;;79.93;24.27;;;;;;;;;;5046094;28;20207;-80
2021/01/03 01:03:12;;;;;;;70.17;24.17;;;;;;;;;;5047371;28;20645;-80
2021/01/03 01:06:17;;;;;;;63.80;22.40;;;;;;;;;;5052635;28;20215;-80
2021/01/03 01:09:23;;;;;;;70.33;23.33;;;;;;;;;;5042641;28;20687;-80
2021/01/03 01:12:28;;;;;;;67.33;21.33;;;;;;;;;;5049474;28;20594;-80
2021/01/03 01:15:33;;;;;;;57.93;21.07;;;;;;;;;;5047371;28;20211;-80
2021/01/03 01:18:37;;;;;;;66.10;21.97;;;;;;;;;;5040974;28;20240;-79
2021/01/03 01:21:42;;;;;;;67.43;22.97;;;;;;;;;;5054898;28;20645;-80
2021/01/03 01:24:48;;;;;;;70.60;22.90;;;;;;;;;;5049919;28;20322;-80
2021/01/03 01:27:52;;;;;;;68.93;23.77;;;;;;;;;;5038960;28;20191;-80
2021/01/03 01:30:57;;;;;;;61.33;22.10;;;;;;;;;;5045141;28;20750;-80
2021/01/03 01:34:02;;;;;;;64.87;23.20;;;;;;;;;;5061061;28;20295;-80
2021/01/03 01:37:07;;;;;;;71.73;24.07;;;;;;;;;;5050343;28;20265;-79
2021/01/03 01:40:14;;;;;;;65.93;23.17;;;;;;;;;;5046086;28;20199;-81
2021/01/03 01:43:19;;;;;;;69.87;22.67;;;;;;;;;;5045571;28;20229;-81
2021/01/03 01:46:28;;;;;;;63.63;22.10;;;;;;;;;;5048001;28;20192;-80
2021/01/03 01:49:40;;;;;;;66.00;22.80;;;;;;;;;;5040775;28;20266;-79
2021/01/03 01:52:47;;;;;;;65.93;23.50;;;;;;;;;;5053061;28;20266;-80
2021/01/03 01:55:55;;;;;;;70.10;23.40;;;;;;;;;;5057116;28;20210;-80
2021/01/03 01:59:02;;;;;;;70.33;22.33;;;;;;;;;;5050787;28;20238;-80
2021/01/03 02:02:09;;;;;;;69.90;23.63;;;;;;;;;;5036598;28;20737;-80
2021/01/03 02:05:15;;;;;;;68.00;22.60;;;;;;;;;;5047866;28;20226;-80
2021/01/03 02:08:24;;;;;;;65.33;22.17;;;;;;;;;;5036049;28;20195;-80
2021/01/03 02:11:30;;;;;;;76.73;23.47;;;;;;;;;;5056655;28;20262;-80
2021/01/03 02:14:35;;;;;;;69.10;23.47;;;;;;;;;;5047847;28;20628;-79
2021/01/03 02:17:40;;;;;;;65.97;22.67;;;;;;;;;;5057925;28;20253;-80
2021/01/03 02:20:50;;;;;;;66.77;22.77;;;;;;;;;;5043370;28;20203;-80
2021/01/03 02:23:59;;;;;;;70.73;23.20;;;;;;;;;;5042455;28;20237;-80
2021/01/03 02:27:08;;;;;;;68.07;21.80;;;;;;;;;;5062269;28;20214;-79
2021/01/03 02:30:14;;;;;;;71.17;23.23;;;;;;;;;;5067699;28;20215;-77
2021/01/03 02:33:21;;;;;;;74.10;23.10;;;;;;;;;;5074424;28;20251;-80
2021/01/03 02:36:30;;;;;;;68.80;24.50;;;;;;;;;;5061812;28;20198;-79
2021/01/03 02:39:41;;;;;;;72.50;24.30;;;;;;;;;;5041116;28;20196;-80
2021/01/03 02:42:46;;;;;;;73.80;23.33;;;;;;;;;;5056990;28;20251;-80
2021/01/03 02:45:51;;;;;;;70.73;23.03;;;;;;;;;;5045631;28;20218;-79
2021/01/03 02:48:56;;;;;;;67.57;22.97;;;;;;;;;;5049853;28;20571;-80
2021/01/03 02:52:02;;;;;;;67.57;22.27;;;;;;;;;;5055516;28;20227;-79
2021/01/03 02:55:08;;;;;;;77.17;23.83;;;;;;;;;;5046464;28;20218;-80
2021/01/03 02:58:14;;;;;;;73.93;23.83;;;;;;;;;;5040203;28;20231;-80
2021/01/03 03:01:20;;;;;;;69.37;22.73;;;;;;;;;;5053692;28;20249;-78
2021/01/03 03:04:25;;;;;;;66.37;22.53;;;;;;;;;;5059912;28;20690;-80
2021/01/03 03:07:30;;;;;;;73.17;23.90;;;;;;;;;;5046189;28;20246;-80
2021/01/03 03:10:34;;;;;;;73.27;24.33;;;;;;;;;;5045894;28;20270;-80
2021/01/03 03:13:40;;;;;;;72.30;24.33;;;;;;;;;;5040703;28;20214;-80
2021/01/03 03:16:44;;;;;;;71.17;24.47;;;;;;;;;;5056250;28;20215;-80
2021/01/03 03:19:49;;;;;;;67.90;24.30;;;;;;;;;;5026705;28;20470;-80
2021/01/03 03:22:54;;;;;;;71.73;24.07;;;;;;;;;;5044682;28;20290;-80
2021/01/03 03:25:58;;;;;;;74.13;24.93;;;;;;;;;;5041785;28;20618;-81
2021/01/03 03:29:04;;;;;;;73.10;24.40;;;;;;;;;;5043246;28;20306;-80
2021/01/03 03:32:09;;;;;;;80.07;23.80;;;;;;;;;;5035616;28;20235;-80
2021/01/03 03:35:14;;;;;;;75.57;24.10;;;;;;;;;;5039996;28;20273;-80
2021/01/03 03:38:20;;;;;;;82.70;25.53;;;;;;;;;;5048489;28;20198;-80
2021/01/03 03:41:26;;;;;;;73.70;24.70;;;;;;;;;;5041106;28;20236;-80
2021/01/03 03:44:32;;;;;;;82.23;24.87;;;;;;;;;;5037304;28;20335;-80
2021/01/03 03:47:37;;;;;;;70.77;23.57;;;;;;;;;;5035195;28;20206;-80
2021/01/03 03:50:41;;;;;;;85.80;26.07;;;;;;;;;;5054615;28;20258;-78
2021/01/03 03:53:46;;;;;;;86.73;26.10;;;;;;;;;;5055554;28;20203;-80
2021/01/03 03:56:51;;;;;;;89.37;26.67;;;;;;;;;;5045992;28;20254;-80
2021/01/03 03:59:57;;;;;;;76.57;24.73;;;;;;;;;;5040905;28;20282;-80
2021/01/03 04:03:02;;;;;;;82.23;24.47;;;;;;;;;;5049121;28;20753;-80
2021/01/03 04:06:07;;;;;;;86.53;24.80;;;;;;;;;;5038084;28;20280;-80
2021/01/03 04:09:12;;;;;;;80.93;25.80;;;;;;;;;;5053847;28;20481;-80
2021/01/03 04:12:17;;;;;;;91.47;26.87;;;;;;;;;;5043207;28;20266;-80
2021/01/03 04:15:22;;;;;;;85.30;25.77;;;;;;;;;;5044328;28;20802;-80
2021/01/03 04:18:28;;;;;;;81.93;26.53;;;;;;;;;;5032528;28;20230;-80
2021/01/03 04:21:32;;;;;;;90.10;26.93;;;;;;;;;;5040542;28;20661;-80
2021/01/03 04:24:37;;;;;;;80.00;25.50;;;;;;;;;;5037220;28;20246;-80
2021/01/03 04:27:42;;;;;;;92.13;26.40;;;;;;;;;;5046071;28;20219;-81
2021/01/03 04:30:49;;;;;;;86.23;25.97;;;;;;;;;;5053640;28;20295;-77
2021/01/03 04:33:54;;;;;;;88.77;25.63;;;;;;;;;;5048127;28;20676;-80
2021/01/03 04:36:59;;;;;;;83.83;26.20;;;;;;;;;;5048357;28;20233;-79
2021/01/03 04:40:05;;;;;;;81.93;25.93;;;;;;;;;;5050766;28;20719;-79
2021/01/03 04:43:13;;;;;;;78.40;25.33;;;;;;;;;;5050324;28;20222;-78
2021/01/03 04:46:22;;;;;;;82.23;25.70;;;;;;;;;;5069992;28;20206;-78
2021/01/03 04:49:34;;;;;;;83.47;25.27;;;;;;;;;;5060251;28;20233;-78
2021/01/03 04:52:51;;;;;;;81.57;24.83;;;;;;;;;;5062838;28;20283;-78
2021/01/03 04:55:58;;;;;;;94.93;27.90;;;;;;;;;;5060520;28;20186;-78
2021/01/03 04:59:06;;;;;;;89.47;26.50;;;;;;;;;;5059442;28;20203;-78
2021/01/03 05:02:26;;;;;;;83.43;25.37;;;;;;;;;;5070306;28;20224;-78
2021/01/03 05:05:33;;;;;;;81.47;25.67;;;;;;;;;;5056680;28;20250;-79
2021/01/03 05:08:41;;;;;;;78.37;24.77;;;;;;;;;;5032420;28;20286;-78
2021/01/03 05:11:49;;;;;;;90.53;25.93;;;;;;;;;;5050415;28;20606;-79
2021/01/03 05:14:55;;;;;;;85.70;25.20;;;;;;;;;;5049926;28;20290;-80
2021/01/03 05:18:01;;;;;;;82.70;26.70;;;;;;;;;;5055524;28;20612;-79
2021/01/03 05:21:09;;;;;;;77.43;25.73;;;;;;;;;;5052099;28;20709;-79
2021/01/03 05:24:13;;;;;;;79.83;26.47;;;;;;;;;;5046727;28;20198;-80
2021/01/03 05:27:20;;;;;;;94.50;27.37;;;;;;;;;;5046873;28;20207;-80
2021/01/03 05:30:27;;;;;;;82.10;25.87;;;;;;;;;;5053152;28;20693;-79
2021/01/03 05:33:33;;;;;;;80.43;26.40;;;;;;;;;;5053707;28;20261;-78
2021/01/03 05:36:41;;;;;;;82.50;26.53;;;;;;;;;;5056587;28;20212;-77
2021/01/03 05:39:48;;;;;;;81.03;25.17;;;;;;;;;;5064473;28;20195;-78
2021/01/03 05:43:02;;;;;;;81.83;26.77;;;;;;;;;;5062435;28;20215;-79
2021/01/03 05:46:09;;;;;;;82.87;25.53;;;;;;;;;;5050594;28;20632;-78
2021/01/03 05:49:22;;;;;;;77.10;24.90;;;;;;;;;;5041994;28;20223;-79
2021/01/03 05:52:29;;;;;;;83.67;26.10;;;;;;;;;;5046350;28;20782;-79
2021/01/03 05:55:34;;;;;;;88.13;27.60;;;;;;;;;;5048738;28;20600;-80
2021/01/03 05:58:41;;;;;;;96.33;27.30;;;;;;;;;;5046860;28;20226;-80
2021/01/03 06:01:45;;;;;;;81.17;26.00;;;;;;;;;;5066282;28;20230;-79
2021/01/03 06:05:03;;;;;;;80.80;26.07;;;;;;;;;;5034783;28;20287;-80
2021/01/03 06:08:11;;;;;;;78.83;25.87;;;;;;;;;;5046533;28;20275;-79
2021/01/03 06:11:17;;;;;;;87.43;27.43;;;;;;;;;;5038502;28;20227;-79
2021/01/03 06:14:24;;;;;;;83.70;27.10;;;;;;;;;;5044814;28;20206;-80
2021/01/03 06:17:32;;;;;;;85.40;26.20;;;;;;;;;;5046000;28;20231;-79
2021/01/03 06:20:37;;;;;;;96.10;27.63;;;;;;;;;;5050525;28;20636;-80
2021/01/03 06:23:48;;;;;;;78.37;24.57;;;;;;;;;;5047128;28;20242;-79
2021/01/03 06:26:55;;;;;;;75.93;26.10;;;;;;;;;;5045045;28;20273;-80
2021/01/03 06:30:02;;;;;;;85.87;26.43;;;;;;;;;;5045555;28;20745;-80
2021/01/03 06:33:38;;;;;;;78.10;24.47;;;;;;;;;;5053522;28;20234;-79
2021/01/03 06:36:57;;;;;;;87.70;25.83;;;;;;;;;;5044645;28;20210;-79
2021/01/03 06:40:07;;;;;;;81.40;24.73;;;;;;;;;;5042431;28;20216;-80
2021/01/03 06:43:30;;;;;;;80.73;25.50;;;;;;;;;;5050664;28;20258;-80
2021/01/03 06:46:44;;;;;;;82.93;25.93;;;;;;;;;;5037530;28;20226;-80
2021/01/03 06:49:58;;;;;;;83.13;25.07;;;;;;;;;;5040195;28;20231;-79
2021/01/03 06:53:18;;;;;;;83.83;25.73;;;;;;;;;;5046409;28;20257;-80
2021/01/03 06:56:45;;;;;;;79.80;25.73;;;;;;;;;;5058266;28;20207;-78
2021/01/03 07:00:03;;;;;;;79.00;25.37;;;;;;;;;;5069115;28;20183;-78
2021/01/03 07:03:13;;;;;;;69.30;23.43;;;;;;;;;;5078509;28;20254;-78
2021/01/03 07:06:19;;;;;;;82.50;25.57;;;;;;;;;;5054446;28;20272;-79
2021/01/03 07:09:24;;;;;;;76.90;23.93;;;;;;;;;;5053369;28;20218;-78
2021/01/03 07:12:34;;;;;;;75.97;26.00;;;;;;;;;;5064718;28;20379;-78
2021/01/03 07:15:40;;;;;;;74.70;24.97;;;;;;;;;;5069654;28;20274;-79
2021/01/03 07:18:49;;;;;;;72.17;23.63;;;;;;;;;;5054514;28;20612;-79
2021/01/03 07:21:57;;;;;;;75.43;26.63;;;;;;;;;;5053466;28;20243;-79
2021/01/03 07:25:08;;;;;;;77.17;26.67;;;;;;;;;;5042501;28;20226;-79
2021/01/03 07:28:16;;;;;;;79.17;24.80;;;;;;;;;;5041593;28;20204;-79
2021/01/03 07:31:36;;;;;;;67.23;23.30;;;;;;;;;;5064825;28;20255;-80
2021/01/03 07:34:40;;;;;;;77.10;25.87;;;;;;;;;;5041367;28;20226;-80
2021/01/03 07:37:45;;;;;;;82.30;25.47;;;;;;;;;;5042710;28;20196;-79
2021/01/03 07:40:51;;;;;;;73.97;25.00;;;;;;;;;;5046718;28;20187;-79
2021/01/03 07:43:59;;;;;;;79.40;26.20;;;;;;;;;;5039085;28;20290;-79
2021/01/03 07:47:05;;;;;;;83.53;25.43;;;;;;;;;;5043081;28;20219;-79
2021/01/03 07:50:37;;;;;;;80.03;26.97;;;;;;;;;;5049661;28;20250;-80
2021/01/03 07:53:41;;;;;;;76.53;24.13;;;;;;;;;;5019851;28;20264;-80
2021/01/03 07:56:46;;;;;;;70.33;24.83;;;;;;;;;;5051533;28;20299;-80
2021/01/03 07:59:52;;;;;;;85.27;24.33;;;;;;;;;;5053070;28;20237;-79
2021/01/03 08:02:59;;;;;;;77.63;25.17;;;;;;;;;;5038832;28;20270;-79
2021/01/03 08:06:07;;;;;;;76.23;25.97;;;;;;;;;;5053575;28;20268;-79
2021/01/03 08:09:12;;;;;;;86.07;24.10;;;;;;;;;;5031623;28;20196;-79
2021/01/03 08:12:20;;;;;;;78.60;25.33;;;;;;;;;;5038577;28;20223;-79
2021/01/03 08:19:08;;;;;;;75.77;26.27;;;;;;;;;;5035619;28;20502;-80
2021/01/03 08:22:13;;;;;;;72.53;25.00;;;;;;;;;;5032849;28;20289;-79
2021/01/03 08:25:19;;;;;;;77.17;25.70;;;;;;;;;;5049224;28;20203;-79
2021/01/03 08:28:24;;;;;;;71.77;25.43;;;;;;;;;;5032539;28;20198;-79
2021/01/03 08:31:31;;;;;;;83.07;25.43;;;;;;;;;;5044261;28;20648;-80
2021/01/03 08:34:37;;;;;;;75.40;26.03;;;;;;;;;;5044883;28;20210;-79
2021/01/03 08:37:44;;;;;;;78.73;26.63;;;;;;;;;;5039231;28;20214;-79
2021/01/03 08:40:48;;;;;;;79.93;25.33;;;;;;;;;;5050098;28;20196;-80
2021/01/03 08:43:53;;;;;;;85.30;26.50;;;;;;;;;;5046976;28;20203;-80
2021/01/03 08:47:04;;;;;;;71.63;25.20;;;;;;;;;;5045466;28;20200;-79
2021/01/03 08:50:10;;;;;;;78.37;25.37;;;;;;;;;;5053836;28;20188;-80
2021/01/03 08:53:19;;;;;;;71.83;24.90;;;;;;;;;;5046483;28;20608;-78
2021/01/03 08:56:26;;;;;;;79.47;26.23;;;;;;;;;;5038415;28;20279;-78
2021/01/03 08:59:30;;;;;;;75.70;24.77;;;;;;;;;;5055131;28;20210;-79
2021/01/03 09:02:36;;;;;;;75.77;25.53;;;;;;;;;;5038655;28;20254;-79
2021/01/03 09:05:42;;;;;;;81.17;28.17;;;;;;;;;;5052629;28;20384;-80
2021/01/03 09:08:48;;;;;;;72.80;26.00;;;;;;;;;;5051854;28;20246;-79
2021/01/03 09:11:55;;;;;;;84.30;28.33;;;;;;;;;;5054156;28;20321;-80
2021/01/03 09:15:01;;;;;;;76.50;25.90;;;;;;;;;;5044386;28;20203;-79
2021/01/03 09:18:10;;;;;;;77.33;26.23;;;;;;;;;;5046792;28;20287;-79
2021/01/03 09:21:15;;;;;;;75.53;24.47;;;;;;;;;;5059042;28;20246;-79
2021/01/03 09:24:21;;;;;;;76.07;24.70;;;;;;;;;;5039459;28;20337;-78
2021/01/03 09:27:30;;;;;;;75.67;24.73;;;;;;;;;;5045285;28;20230;-78
2021/01/03 09:30:36;;;;;;;72.77;24.87;;;;;;;;;;5052063;28;20219;-79
2021/01/03 09:33:43;;;;;;;72.97;24.07;;;;;;;;;;5044948;28;20230;-79
2021/01/03 09:36:51;;;;;;;75.87;26.00;;;;;;;;;;5046039;28;20194;-79
2021/01/03 09:40:06;;;;;;;70.23;25.37;;;;;;;;;;5039616;28;20214;-80
2021/01/03 09:43:22;;;;;;;72.93;26.30;;;;;;;;;;5030460;28;20242;-78
2021/01/03 09:46:29;;;;;;;75.90;25.50;;;;;;;;;;5058132;28;20263;-79
2021/01/03 09:49:42;;;;;;;92.37;29.90;;;;;;;;;;5035566;28;20299;-79
2021/01/03 09:52:50;;;;;;;85.17;26.03;;;;;;;;;;5041284;28;20227;-80
2021/01/03 09:55:59;;;;;;;71.90;25.40;;;;;;;;;;5050790;28;20896;-79
2021/01/03 09:59:11;;;;;;;74.57;25.67;;;;;;;;;;5056654;28;20249;-79
2021/01/03 10:02:19;;;;;;;67.67;23.43;;;;;;;;;;5039100;28;20219;-80
2021/01/03 10:05:26;;;;;;;69.40;22.90;;;;;;;;;;5039988;28;20199;-80
2021/01/03 10:08:30;;;;;;;68.30;22.37;;;;;;;;;;5044486;28;20207;-80
2021/01/03 10:11:35;;;;;;;67.53;22.37;;;;;;;;;;5044058;28;20650;-79
2021/01/03 10:14:41;;;;;;;68.60;22.47;;;;;;;;;;5061775;28;20214;-79
2021/01/03 10:17:55;;;;;;;73.90;23.17;;;;;;;;;;5044263;28;20199;-79
2021/01/03 10:21:01;;;;;;;72.03;24.37;;;;;;;;;;5053868;28;20856;-79
2021/01/03 10:24:12;;;;;;;74.90;22.97;;;;;;;;;;5040931;28;20723;-79
2021/01/03 10:27:17;;;;;;;77.87;22.53;;;;;;;;;;5052028;28;20198;-78
2021/01/03 10:30:23;;;;;;;69.30;22.43;;;;;;;;;;5049495;28;20219;-78
2021/01/03 10:33:28;;;;;;;78.60;23.17;;;;;;;;;;5054469;28;20718;-80
2021/01/03 10:36:35;;;;;;;73.50;23.67;;;;;;;;;;5038449;28;20208;-78
2021/01/03 10:39:40;;;;;;;68.47;23.50;;;;;;;;;;5058592;28;20334;-77
2021/01/03 10:42:45;;;;;;;77.20;24.83;;;;;;;;;;5055114;28;20217;-77
2021/01/03 10:45:50;;;;;;;80.50;24.33;;;;;;;;;;5048950;28;20246;-78
2021/01/03 10:48:54;;;;;;;90.53;25.50;;;;;;;;;;5049826;28;20192;-78
2021/01/03 10:52:00;;;;;;;71.50;23.73;;;;;;;;;;5044205;28;20234;-77
2021/01/03 10:55:05;;;;;;;76.87;23.80;;;;;;;;;;5054010;28;20195;-78
2021/01/03 10:58:10;;;;;;;69.17;22.63;;;;;;;;;;5053596;28;20203;-81
2021/01/03 11:01:14;;;;;;;65.60;22.97;;;;;;;;;;5050886;28;20218;-81
2021/01/03 11:04:20;;;;;;;71.17;23.27;;;;;;;;;;5051731;28;20206;-80
2021/01/03 11:07:26;;;;;;;78.73;23.43;;;;;;;;;;5050672;28;20207;-80
2021/01/03 11:10:30;;;;;;;67.13;22.47;;;;;;;;;;5043649;28;20262;-80
2021/01/03 11:13:36;;;;;;;67.87;21.50;;;;;;;;;;5050817;28;20204;-78
2021/01/03 11:16:42;;;;;;;63.50;21.53;;;;;;;;;;5074461;28;20209;-78
2021/01/03 11:19:47;;;;;;;61.77;20.97;;;;;;;;;;5062241;28;20215;-77
2021/01/03 11:22:52;;;;;;;68.33;22.97;;;;;;;;;;5056834;28;20258;-77
2021/01/03 11:25:57;;;;;;;65.17;20.97;;;;;;;;;;5052080;28;20235;-77
2021/01/03 11:29:03;;;;;;;62.87;20.00;;;;;;;;;;5042236;28;20758;-79
2021/01/03 11:32:10;;;;;;;67.93;21.37;;;;;;;;;;5037231;28;20653;-78
2021/01/03 11:35:32;;;;;;;65.90;20.03;;;;;;;;;;5033841;28;20212;-78
2021/01/03 11:38:41;;;;;;;52.67;17.97;;;;;;;;;;5030836;28;20224;-79
2021/01/03 11:41:46;;;;;;;51.10;16.03;;;;;;;;;;5021830;28;20336;-79
2021/01/03 11:44:51;;;;;;;49.30;15.57;;;;;;;;;;5016636;28;20212;-80
2021/01/03 11:47:56;;;;;;;62.63;21.83;;;;;;;;;;5020904;28;20209;-80
2021/01/03 11:51:01;;;;;;;56.30;18.00;;;;;;;;;;5021465;28;20215;-80
2021/01/03 11:54:07;;;;;;;53.93;17.80;;;;;;;;;;5024768;28;20220;-79
2021/01/03 11:57:12;;;;;;;50.33;17.10;;;;;;;;;;5032451;28;20191;-78
2021/01/03 12:00:17;;;;;;;54.53;18.93;;;;;;;;;;5032391;28;20263;-79
2021/01/03 12:03:23;;;;;;;56.70;19.13;;;;;;;;;;5039979;28;20225;-78
2021/01/03 12:06:27;;;;;;;55.13;18.53;;;;;;;;;;5048382;28;20283;-78
2021/01/03 12:09:33;;;;;;;55.13;18.43;;;;;;;;;;5048519;28;20219;-79
2021/01/03 12:12:38;;;;;;;56.13;18.03;;;;;;;;;;5034323;28;20955;-78
2021/01/03 12:15:43;;;;;;;60.73;18.27;;;;;;;;;;5036309;28;20303;-79
2021/01/03 12:18:49;;;;;;;52.00;17.37;;;;;;;;;;5035760;28;20672;-79
2021/01/03 12:21:56;;;;;;;55.73;18.87;;;;;;;;;;5037250;28;20235;-79
2021/01/03 12:25:02;;;;;;;57.07;18.53;;;;;;;;;;5045839;28;20230;-79
2021/01/03 12:28:07;;;;;;;68.30;18.40;;;;;;;;;;5048554;28;20223;-79
2021/01/03 12:31:12;;;;;;;55.03;17.37;;;;;;;;;;5034991;28;20642;-80
2021/01/03 12:34:17;;;;;;;60.93;19.00;;;;;;;;;;5046569;28;20309;-81
2021/01/03 12:37:23;;;;;;;59.50;19.40;;;;;;;;;;5036244;28;20655;-80
2021/01/03 12:40:28;;;;;;;57.50;17.80;;;;;;;;;;5035815;28;20288;-81
2021/01/03 12:43:33;;;;;;;53.07;17.97;;;;;;;;;;5037713;28;20227;-80
2021/01/03 12:46:39;;;;;;;53.00;18.63;;;;;;;;;;5055731;28;20678;-80
2021/01/03 12:49:44;;;;;;;61.77;18.87;;;;;;;;;;5036089;28;20261;-77
2021/01/03 12:52:48;;;;;;;58.63;18.23;;;;;;;;;;5051089;28;20223;-80
2021/01/03 12:55:54;;;;;;;59.20;19.07;;;;;;;;;;5029726;28;20274;-80
2021/01/03 12:59:00;;;;;;;69.83;24.63;;;;;;;;;;5022315;28;20588;-79
2021/01/03 13:02:05;;;;;;;59.63;20.77;;;;;;;;;;5023394;28;20671;-79
2021/01/03 13:05:11;;;;;;;55.23;18.63;;;;;;;;;;5029557;28;20220;-79
2021/01/03 13:08:15;;;;;;;58.57;21.37;;;;;;;;;;5033265;28;20219;-79
2021/01/03 13:11:21;;;;;;;52.57;18.77;;;;;;;;;;5035141;28;20238;-80
2021/01/03 13:14:26;;;;;;;52.27;18.10;;;;;;;;;;5038107;28;20220;-79
2021/01/03 13:17:31;;;;;;;52.90;18.43;;;;;;;;;;5047453;28;20272;-78
2021/01/03 13:20:36;;;;;;;54.83;18.27;;;;;;;;;;5034663;28;20239;-78
2021/01/03 13:23:42;;;;;;;54.17;18.70;;;;;;;;;;5041636;28;20856;-79
2021/01/03 13:26:52;;;;;;;52.07;17.43;;;;;;;;;;5041203;28;20203;-77
2021/01/03 13:29:59;;;;;;;56.53;18.70;;;;;;;;;;5049345;28;20191;-78
2021/01/03 13:33:26;;;;;;;49.80;17.97;;;;;;;;;;5053959;28;20256;-79
2021/01/03 13:36:31;;;;;;;58.03;17.47;;;;;;;;;;5050940;28;20262;-78
2021/01/03 13:39:36;;;;;;;52.63;17.07;;;;;;;;;;5035050;28;20356;-78
2021/01/03 13:42:41;;;;;;;51.50;16.10;;;;;;;;;;5051414;28;20231;-77
2021/01/03 13:45:51;;;;;;;51.13;17.93;;;;;;;;;;5050165;28;20227;-77
2021/01/03 13:49:00;;;;;;;53.13;16.53;;;;;;;;;;5038533;28;20207;-78
2021/01/03 13:52:06;;;;;;;58.07;18.13;;;;;;;;;;5040559;28;20282;-78
2021/01/03 13:55:11;;;;;;;63.63;17.50;;;;;;;;;;5029561;28;20251;-78
2021/01/03 13:58:17;;;;;;;48.93;17.17;;;;;;;;;;5020695;28;20255;-78
2021/01/03 14:01:27;;;;;;;54.70;17.20;;;;;;;;;;5026046;28;20253;-77
2021/01/03 14:04:31;;;;;;;50.53;17.43;;;;;;;;;;5032090;28;20220;-78
2021/01/03 14:07:36;;;;;;;60.23;18.27;;;;;;;;;;5036119;28;20588;-78
2021/01/03 14:10:41;;;;;;;49.70;17.13;;;;;;;;;;5021039;28;20212;-79
2021/01/03 14:13:47;;;;;;;53.17;17.30;;;;;;;;;;5029707;28;20212;-78
2021/01/03 14:16:55;;;;;;;46.63;17.07;;;;;;;;;;5033684;28;20208;-78
2021/01/03 14:20:00;;;;;;;49.83;17.00;;;;;;;;;;5030567;28;20235;-79
2021/01/03 14:23:04;;;;;;;47.43;18.27;;;;;;;;;;5042210;28;20246;-78
2021/01/03 14:26:09;;;;;;;51.10;17.53;;;;;;;;;;5033542;28;20211;-78
2021/01/03 14:29:16;;;;;;;58.80;20.10;;;;;;;;;;5035211;28;20215;-78
2021/01/03 14:32:21;;;;;;;60.27;21.53;;;;;;;;;;5020051;28;20264;-78
2021/01/03 14:35:25;;;;;;;51.60;19.13;;;;;;;;;;5034893;28;20211;-78
2021/01/03 14:38:32;;;;;;;58.30;19.77;;;;;;;;;;5020842;28;20254;-77
2021/01/03 14:41:40;;;;;;;58.37;20.43;;;;;;;;;;5033359;28;20236;-78
2021/01/03 14:44:51;;;;;;;56.40;18.77;;;;;;;;;;5047214;28;20657;-79
2021/01/03 14:48:03;;;;;;;57.13;18.70;;;;;;;;;;5038692;28;20206;-78
2021/01/03 14:51:14;;;;;;;57.93;17.93;;;;;;;;;;5036182;28;20342;-78
2021/01/03 14:54:37;;;;;;;61.53;19.63;;;;;;;;;;5028141;28;20288;-78
2021/01/03 14:57:42;;;;;;;57.40;18.57;;;;;;;;;;5031851;28;20212;-78
2021/01/03 15:00:48;;;;;;;66.40;21.07;;;;;;;;;;5025619;28;20220;-78
2021/01/03 15:03:59;;;;;;;58.63;20.13;;;;;;;;;;5026253;28;20228;-78
2021/01/03 15:07:06;;;;;;;68.43;24.50;;;;;;;;;;5029575;28;20211;-78
2021/01/03 15:10:12;;;;;;;54.60;19.33;;;;;;;;;;5031193;28;20764;-78
2021/01/03 15:13:16;;;;;;;61.50;19.57;;;;;;;;;;5044591;28;20226;-78
2021/01/03 15:16:25;;;;;;;54.50;19.13;;;;;;;;;;5043763;28;20211;-78
2021/01/03 15:19:36;;;;;;;61.20;19.47;;;;;;;;;;5044171;28;20227;-77
2021/01/03 15:22:44;;;;;;;54.60;19.37;;;;;;;;;;5053047;28;20235;-78
2021/01/03 15:25:50;;;;;;;55.23;19.30;;;;;;;;;;5040687;28;20207;-77
2021/01/03 15:28:57;;;;;;;54.37;19.07;;;;;;;;;;5038308;28;20638;-77
2021/01/03 15:32:07;;;;;;;55.93;19.23;;;;;;;;;;5033433;28;20592;-76
2021/01/03 15:35:15;;;;;;;51.20;18.33;;;;;;;;;;5053659;28;20191;-77
2021/01/03 15:38:51;;;;;;;54.57;20.03;;;;;;;;;;5060840;28;20496;-77
2021/01/03 15:41:59;;;;;;;54.10;18.67;;;;;;;;;;5062213;28;20231;-77
2021/01/03 15:45:05;;;;;;;55.13;18.37;;;;;;;;;;5052155;28;20219;-77
2021/01/03 15:48:10;;;;;;;53.40;18.17;;;;;;;;;;5028279;28;20339;-77
2021/01/03 15:51:16;;;;;;;53.70;18.90;;;;;;;;;;5034056;28;20250;-77
2021/01/03 15:54:20;;;;;;;51.60;18.50;;;;;;;;;;5049921;28;20273;-77
2021/01/03 15:57:27;;;;;;;50.60;17.97;;;;;;;;;;5035759;28;20215;-77
2021/01/03 16:00:32;;;;;;;53.13;16.53;;;;;;;;;;5030047;28;20243;-78
2021/01/03 16:03:38;;;;;;;46.47;17.43;;;;;;;;;;5027145;28;20204;-77
2021/01/03 16:06:45;;;;;;;47.57;17.40;;;;;;;;;;5041926;28;20722;-77
2021/01/03 16:09:50;;;;;;;54.43;19.03;;;;;;;;;;5043867;28;20245;-78
2021/01/03 16:12:54;;;;;;;50.40;18.50;;;;;;;;;;5037070;28;20759;-78
2021/01/03 16:15:59;;;;;;;53.67;18.47;;;;;;;;;;5028230;28;20220;-78
2021/01/03 16:19:06;;;;;;;59.27;20.07;;;;;;;;;;5031820;28;20246;-80
2021/01/03 16:22:38;;;;;;;52.70;19.33;;;;;;;;;;5039557;28;20659;-77
2021/01/03 16:25:48;;;;;;;51.73;18.70;;;;;;;;;;5033427;28;20346;-77
2021/01/03 16:28:58;;;;;;;54.10;19.83;;;;;;;;;;5016355;28;20634;-77
2021/01/03 16:32:11;;;;;;;53.97;20.00;;;;;;;;;;5035118;28;20230;-77
2021/01/03 16:35:21;;;;;;;53.93;21.30;;;;;;;;;;5045470;28;20245;-77
2021/01/03 16:38:41;;;;;;;56.27;20.77;;;;;;;;;;5039394;28;20207;-78
2021/01/03 16:41:57;;;;;;;57.60;22.80;;;;;;;;;;5044973;28;20597;-78
2021/01/03 16:45:07;;;;;;;59.17;20.73;;;;;;;;;;5043957;28;20199;-77
2021/01/03 16:48:32;;;;;;;50.63;17.93;;;;;;;;;;5027725;28;20188;-77
2021/01/03 16:51:41;;;;;;;47.20;18.13;;;;;;;;;;5004030;28;20255;-77
2021/01/03 16:55:01;;;;;;;60.83;23.07;;;;;;;;;;5046585;28;20268;-77
2021/01/03 16:58:12;;;;;;;47.23;18.13;;;;;;;;;;5049670;28;20214;-77
2021/01/03 17:01:19;;;;;;;46.43;17.43;;;;;;;;;;5043043;28;20679;-77
2021/01/03 17:04:24;;;;;;;47.17;16.87;;;;;;;;;;5024799;28;20207;-77
2021/01/03 17:07:31;;;;;;;49.37;17.67;;;;;;;;;;5037123;28;20203;-77
2021/01/03 17:10:51;;;;;;;50.23;19.67;;;;;;;;;;5048643;28;20206;-78
2021/01/03 17:14:15;;;;;;;53.47;18.70;;;;;;;;;;5031122;28;20538;-79
2021/01/03 17:17:25;;;;;;;61.03;20.97;;;;;;;;;;5029023;28;20208;-77
2021/01/03 17:20:37;;;;;;;53.60;18.37;;;;;;;;;;5041267;28;20732;-77
2021/01/03 17:23:45;;;;;;;55.30;21.23;;;;;;;;;;5019836;28;20628;-76
2021/01/03 17:26:53;;;;;;;61.70;22.13;;;;;;;;;;5044964;28;20204;-77
2021/01/03 17:30:02;;;;;;;62.43;21.57;;;;;;;;;;5060793;28;20219;-78
2021/01/03 17:33:16;;;;;;;62.33;20.03;;;;;;;;;;5047645;28;20229;-78
2021/01/03 17:36:25;;;;;;;66.70;22.73;;;;;;;;;;5024270;28;20204;-78
2021/01/03 17:39:33;;;;;;;59.07;21.33;;;;;;;;;;5043994;28;20206;-79
2021/01/03 17:42:38;;;;;;;65.03;22.43;;;;;;;;;;5050117;28;20222;-78
2021/01/03 17:45:43;;;;;;;62.20;21.73;;;;;;;;;;5029741;28;20726;-78
2021/01/03 17:48:50;;;;;;;61.67;21.73;;;;;;;;;;5038125;28;20223;-77
2021/01/03 17:51:55;;;;;;;62.50;21.07;;;;;;;;;;5037804;28;20239;-78
2021/01/03 17:55:00;;;;;;;59.33;21.50;;;;;;;;;;5026291;28;20203;-78
2021/01/03 17:58:06;;;;;;;51.93;19.43;;;;;;;;;;5047955;28;20684;-78
2021/01/03 18:01:11;;;;;;;56.13;18.47;;;;;;;;;;5058555;28;20218;-77
2021/01/03 18:04:21;;;;;;;51.27;17.67;;;;;;;;;;5040407;28;20208;-77
2021/01/03 18:07:26;;;;;;;49.33;17.83;;;;;;;;;;5061608;28;20238;-77
2021/01/03 18:10:32;;;;;;;55.93;19.70;;;;;;;;;;5044610;28;20255;-77
2021/01/03 18:13:36;;;;;;;52.50;18.63;;;;;;;;;;5039745;28;20690;-77